Time;durP1;ratioP1;P1;durP2;ratioP2;P2;SDS_P1;SDS_P2;PMS_P1;PMS_P2;Temp;Humidity;BMP_temperature;BMP_pressure;BME280_temperature;BME280_humidity;BME280_pressure;Samples;Min_cycle;Max_cycle;Signal;HPM_P1;HPM_P2
2022/11/13 00:00:51;;;;;;;2.65;2.53;;;9.60;99.90;;;;;;5040815;28;20309;-76
2022/11/13 00:03:20;;;;;;;2.65;2.45;;;9.60;99.90;;;;;;5033527;28;20306;-75
2022/11/13 00:05:47;;;;;;;3.13;2.90;;;9.60;99.90;;;;;;5036575;28;20560;-75
2022/11/13 00:08:14;;;;;;;2.90;2.70;;;9.60;99.90;;;;;;5035125;28;20216;-75
2022/11/13 00:10:42;;;;;;;2.97;2.78;;;9.60;99.90;;;;;;5033869;28;20262;-76
2022/11/13 00:13:09;;;;;;;2.95;2.75;;;9.60;99.90;;;;;;5036903;28;20225;-76
2022/11/13 00:15:36;;;;;;;2.90;2.65;;;9.70;99.90;;;;;;5032397;28;20216;-76
2022/11/13 00:18:04;;;;;;;2.55;2.35;;;9.70;99.90;;;;;;5033077;28;20223;-75
2022/11/13 00:20:32;;;;;;;3.10;2.85;;;9.70;99.90;;;;;;5033470;28;20593;-74
2022/11/13 00:23:00;;;;;;;2.55;2.40;;;9.70;99.90;;;;;;5032517;28;20220;-74
2022/11/13 00:25:27;;;;;;;11.40;4.40;;;9.70;99.90;;;;;;5038625;28;20279;-75
2022/11/13 00:27:54;;;;;;;3.17;2.88;;;9.70;99.90;;;;;;5038013;28;20218;-75
2022/11/13 00:30:21;;;;;;;3.25;2.95;;;9.70;99.90;;;;;;5035253;28;20609;-75
2022/11/13 00:32:48;;;;;;;3.45;3.25;;;9.70;99.90;;;;;;5033634;28;20244;-75
2022/11/13 00:35:16;;;;;;;3.30;3.10;;;9.70;99.90;;;;;;5035845;28;20220;-75
2022/11/13 00:37:44;;;;;;;3.00;2.80;;;9.70;99.90;;;;;;5034323;28;20218;-76
2022/11/13 00:40:12;;;;;;;3.42;3.20;;;9.70;99.90;;;;;;5033975;28;20219;-75
2022/11/13 00:42:39;;;;;;;2.85;2.65;;;9.70;99.90;;;;;;5036790;28;20300;-75
2022/11/13 00:45:08;;;;;;;3.05;2.85;;;9.70;99.90;;;;;;5032107;28;20202;-75
2022/11/13 00:47:35;;;;;;;3.00;2.80;;;9.70;99.90;;;;;;5035939;28;20220;-75
2022/11/13 00:50:02;;;;;;;3.00;2.80;;;9.70;99.90;;;;;;5040762;28;20318;-75
2022/11/13 00:52:29;;;;;;;2.65;2.45;;;9.70;99.90;;;;;;5036057;28;20425;-75
2022/11/13 00:54:58;;;;;;;2.72;2.53;;;9.70;99.90;;;;;;5031619;28;20216;-75
2022/11/13 00:57:25;;;;;;;2.78;2.58;;;9.70;99.90;;;;;;5032164;28;20303;-75
2022/11/13 00:59:52;;;;;;;2.80;2.60;;;9.70;99.90;;;;;;5036422;28;20284;-75
2022/11/13 01:02:20;;;;;;;2.90;2.70;;;9.70;99.90;;;;;;5036658;28;20256;-75
2022/11/13 01:04:47;;;;;;;2.90;2.70;;;9.70;99.90;;;;;;5029946;28;20222;-75
2022/11/13 01:07:14;;;;;;;2.70;2.58;;;9.70;99.90;;;;;;5040817;28;20248;-75
2022/11/13 01:09:41;;;;;;;2.80;2.60;;;9.70;99.90;;;;;;5033796;28;20615;-75
2022/11/13 01:12:10;;;;;;;2.55;2.40;;;9.70;99.90;;;;;;5032348;28;20689;-75
2022/11/13 01:14:37;;;;;;;2.80;2.60;;;9.70;99.90;;;;;;5039272;28;20191;-76
2022/11/13 01:17:04;;;;;;;2.88;2.67;;;9.70;99.90;;;;;;5028076;28;20230;-75
2022/11/13 01:19:31;;;;;;;3.20;3.00;;;9.70;99.90;;;;;;5037237;28;20191;-76
2022/11/13 01:21:59;;;;;;;2.90;2.70;;;9.60;99.90;;;;;;5032744;28;20224;-75
2022/11/13 01:24:26;;;;;;;2.80;2.60;;;9.50;99.90;;;;;;5033209;28;20199;-76
2022/11/13 01:26:53;;;;;;;2.80;2.60;;;9.50;99.90;;;;;;5035666;28;20231;-75
2022/11/13 01:29:22;;;;;;;2.78;2.60;;;9.50;99.90;;;;;;5031893;28;20201;-76
2022/11/13 01:31:49;;;;;;;3.72;2.78;;;9.50;99.90;;;;;;5031780;28;20223;-76
2022/11/13 01:34:16;;;;;;;2.85;2.65;;;9.50;99.90;;;;;;5035895;28;20218;-75
2022/11/13 01:36:44;;;;;;;3.03;2.83;;;9.50;99.90;;;;;;5029361;28;20707;-75
2022/11/13 01:39:12;;;;;;;2.88;2.67;;;9.60;99.90;;;;;;5033106;28;20198;-75
2022/11/13 01:41:40;;;;;;;2.97;2.78;;;9.60;99.90;;;;;;5031616;28;20249;-75
2022/11/13 01:44:11;;;;;;;3.00;2.80;;;9.60;99.90;;;;;;5040408;28;20195;-74
2022/11/13 01:46:42;;;;;;;2.85;2.65;;;9.70;99.90;;;;;;5037337;28;20214;-76
2022/11/13 01:49:27;;;;;;;2.58;2.47;;;9.70;99.90;;;;;;5035319;28;20247;-76
2022/11/13 01:51:57;;;;;;;2.92;2.72;;;9.60;99.90;;;;;;5034058;28;20225;-76
2022/11/13 01:54:27;;;;;;;2.70;2.50;;;9.60;99.90;;;;;;5038001;28;20229;-76
2022/11/13 01:56:55;;;;;;;2.88;2.67;;;9.60;99.90;;;;;;5026659;28;20228;-75
2022/11/13 01:59:25;;;;;;;2.60;2.50;;;9.50;99.90;;;;;;5035292;28;20286;-76
2022/11/13 02:01:55;;;;;;;2.95;2.75;;;9.60;99.90;;;;;;5030433;28;20238;-76
2022/11/13 02:04:22;;;;;;;2.90;2.67;;;9.60;99.90;;;;;;5028163;28;20291;-75
2022/11/13 02:06:52;;;;;;;2.80;2.60;;;9.60;99.90;;;;;;5038328;28;20221;-76
2022/11/13 02:09:23;;;;;;;2.78;2.58;;;9.60;99.90;;;;;;5032649;28;20204;-76
2022/11/13 02:11:51;;;;;;;2.70;2.50;;;9.60;99.90;;;;;;5029337;28;20234;-75
2022/11/13 02:14:19;;;;;;;2.72;2.50;;;9.50;99.90;;;;;;5040258;28;20365;-75
2022/11/13 02:16:49;;;;;;;3.35;3.05;;;9.50;99.90;;;;;;5026308;28;20216;-75
2022/11/13 02:19:25;;;;;;;3.03;2.72;;;9.40;99.90;;;;;;5035926;28;20191;-76
2022/11/13 02:21:58;;;;;;;2.90;2.70;;;9.30;99.90;;;;;;5037568;28;21974;-75
2022/11/13 02:24:30;;;;;;;2.80;2.60;;;9.30;99.90;;;;;;5036462;28;20208;-76
2022/11/13 02:27:01;;;;;;;2.88;2.67;;;9.30;99.90;;;;;;5033968;28;20224;-75
2022/11/13 02:29:28;;;;;;;2.53;2.42;;;9.40;99.90;;;;;;5031990;28;20650;-75
2022/11/13 02:31:56;;;;;;;2.75;2.55;;;9.40;99.90;;;;;;5034812;28;20473;-75
2022/11/13 02:34:23;;;;;;;3.50;2.63;;;9.40;99.90;;;;;;5033097;28;20215;-75
2022/11/13 02:36:51;;;;;;;2.95;2.75;;;9.50;99.90;;;;;;5027221;28;20316;-76
2022/11/13 02:39:18;;;;;;;2.97;2.78;;;9.50;99.90;;;;;;5024835;28;20203;-75
2022/11/13 02:41:47;;;;;;;2.78;2.58;;;9.50;99.90;;;;;;5026666;28;20215;-76
2022/11/13 02:44:14;;;;;;;3.38;2.50;;;9.50;99.90;;;;;;5029578;28;20196;-76
2022/11/13 02:46:41;;;;;;;3.25;3.05;;;9.50;99.90;;;;;;5031082;28;20202;-76
2022/11/13 02:49:08;;;;;;;3.13;2.90;;;9.40;99.90;;;;;;5028350;28;20214;-76
2022/11/13 02:51:35;;;;;;;3.00;2.80;;;9.40;99.90;;;;;;5034617;28;20226;-76
2022/11/13 02:54:03;;;;;;;2.88;2.67;;;9.40;99.90;;;;;;5036253;28;20196;-76
2022/11/13 02:56:30;;;;;;;3.15;2.95;;;9.30;99.90;;;;;;5040292;28;20219;-76
2022/11/13 02:58:59;;;;;;;2.50;2.40;;;9.30;99.90;;;;;;5042349;28;20311;-76
2022/11/13 03:01:26;;;;;;;3.25;3.03;;;9.30;99.90;;;;;;5034326;28;20214;-76
2022/11/13 03:03:53;;;;;;;2.95;2.67;;;9.30;99.90;;;;;;5036974;28;20223;-76
2022/11/13 03:06:20;;;;;;;2.58;2.47;;;9.20;99.90;;;;;;5029789;28;20199;-76
2022/11/13 03:08:47;;;;;;;2.70;2.50;;;9.20;99.90;;;;;;5036517;28;20215;-75
2022/11/13 03:11:14;;;;;;;3.05;2.85;;;9.20;99.90;;;;;;5038193;28;20218;-76
2022/11/13 03:13:41;;;;;;;2.85;2.65;;;9.20;99.90;;;;;;5035586;28;20575;-76
2022/11/13 03:16:11;;;;;;;2.95;2.63;;;9.20;99.90;;;;;;5035696;28;20215;-75
2022/11/13 03:18:38;;;;;;;2.72;2.53;;;9.10;99.90;;;;;;5031655;28;20237;-76
2022/11/13 03:21:08;;;;;;;2.60;2.40;;;9.10;99.90;;;;;;5044516;28;20233;-76
2022/11/13 03:23:35;;;;;;;3.38;2.15;;;9.10;99.90;;;;;;5039891;28;20759;-76
2022/11/13 03:26:04;;;;;;;3.00;2.80;;;9.00;99.90;;;;;;5039414;28;20206;-76
2022/11/13 03:28:31;;;;;;;2.83;2.63;;;9.00;99.90;;;;;;5034935;28;20216;-76
2022/11/13 03:30:58;;;;;;;3.17;2.58;;;8.90;99.90;;;;;;5035316;28;20224;-76
2022/11/13 03:33:27;;;;;;;3.05;2.67;;;8.90;99.90;;;;;;5036424;28;20219;-76
2022/11/13 03:35:54;;;;;;;2.85;2.70;;;8.90;99.90;;;;;;5042412;28;20214;-75
2022/11/13 03:38:21;;;;;;;2.63;2.50;;;8.80;99.90;;;;;;5038289;28;20215;-75
2022/11/13 03:40:48;;;;;;;2.95;2.75;;;8.70;99.90;;;;;;5038548;28;20207;-76
2022/11/13 03:43:16;;;;;;;3.33;3.03;;;8.60;99.90;;;;;;5030987;28;20212;-76
2022/11/13 03:45:46;;;;;;;2.90;2.70;;;8.60;99.90;;;;;;5035732;28;20213;-75
2022/11/13 03:48:14;;;;;;;2.88;2.67;;;8.50;99.90;;;;;;5030183;28;20593;-76
2022/11/13 03:50:44;;;;;;;2.50;2.38;;;8.50;99.90;;;;;;5032529;28;20269;-76
2022/11/13 03:53:11;;;;;;;2.50;2.40;;;8.50;99.90;;;;;;5045013;28;20215;-75
2022/11/13 03:55:38;;;;;;;3.08;2.88;;;8.50;99.90;;;;;;5032889;28;20203;-75
2022/11/13 03:58:06;;;;;;;2.85;2.65;;;8.50;99.90;;;;;;5036493;28;20223;-76
2022/11/13 04:00:33;;;;;;;2.83;2.63;;;8.40;99.90;;;;;;5036658;28;20724;-76
2022/11/13 04:03:01;;;;;;;3.28;3.05;;;8.40;99.90;;;;;;5032642;28;20709;-75
2022/11/13 04:05:28;;;;;;;4.45;2.53;;;8.40;99.90;;;;;;5041479;28;20205;-76
2022/11/13 04:07:56;;;;;;;2.60;2.40;;;8.30;99.90;;;;;;5032735;28;20273;-75
2022/11/13 04:10:24;;;;;;;2.58;2.47;;;8.30;99.90;;;;;;5036237;28;20222;-75
2022/11/13 04:12:52;;;;;;;3.15;2.92;;;8.20;99.90;;;;;;5034008;28;20222;-75
2022/11/13 04:15:19;;;;;;;3.10;2.90;;;8.20;99.90;;;;;;5040942;28;20202;-76
2022/11/13 04:17:46;;;;;;;2.65;2.45;;;8.20;99.90;;;;;;5035800;28;20242;-76
2022/11/13 04:20:13;;;;;;;2.85;2.67;;;8.20;99.90;;;;;;5043199;28;20306;-76
2022/11/13 04:22:40;;;;;;;2.60;2.40;;;8.20;99.90;;;;;;5034592;28;20219;-75
2022/11/13 04:25:09;;;;;;;2.33;2.20;;;8.20;99.90;;;;;;5038305;28;20608;-75
2022/11/13 04:27:37;;;;;;;2.38;2.28;;;8.10;99.90;;;;;;5041505;28;20731;-76
2022/11/13 04:30:05;;;;;;;2.63;2.53;;;8.10;99.90;;;;;;5036436;28;20235;-76
2022/11/13 04:32:33;;;;;;;3.53;2.60;;;8.10;99.90;;;;;;5036534;28;20239;-76
2022/11/13 04:35:00;;;;;;;3.00;2.80;;;8.10;99.90;;;;;;5034920;28;20210;-76
2022/11/13 04:37:27;;;;;;;3.10;2.90;;;8.10;99.90;;;;;;5034252;28;20223;-75
2022/11/13 04:39:54;;;;;;;2.92;2.72;;;8.10;99.90;;;;;;5038025;28;20220;-75
2022/11/13 04:45:08;;;;;;;2.75;2.60;;;8.00;99.90;;;;;;5031437;28;20199;-75
2022/11/13 04:47:36;;;;;;;3.30;3.10;;;7.90;99.90;;;;;;5046571;28;20314;-75
2022/11/13 04:50:03;;;;;;;2.83;2.53;;;7.90;99.90;;;;;;5038610;28;20225;-75
2022/11/13 04:52:30;;;;;;;3.00;2.80;;;7.90;99.90;;;;;;5033986;28;20345;-75
2022/11/13 04:54:57;;;;;;;3.35;2.78;;;7.90;99.90;;;;;;5034689;28;20302;-76
2022/11/13 04:57:26;;;;;;;2.95;2.75;;;7.90;99.90;;;;;;5032418;28;20296;-75
2022/11/13 04:59:53;;;;;;;2.90;2.70;;;7.90;99.90;;;;;;5032452;28;20697;-76
2022/11/13 05:02:21;;;;;;;2.78;2.67;;;7.90;99.90;;;;;;5032728;28;20749;-75
2022/11/13 05:04:48;;;;;;;3.20;3.00;;;7.80;99.90;;;;;;5031518;28;20646;-76
2022/11/13 05:07:15;;;;;;;3.00;2.80;;;7.70;99.90;;;;;;5037481;28;20634;-76
2022/11/13 05:09:43;;;;;;;3.13;2.92;;;7.70;99.90;;;;;;5033750;28;20289;-76
2022/11/13 05:12:10;;;;;;;3.00;2.90;;;7.70;99.90;;;;;;5070038;22;20223;-74
2022/11/13 05:14:39;;;;;;;3.30;3.10;;;7.70;99.90;;;;;;5020107;28;20311;-73
2022/11/13 05:17:08;;;;;;;3.42;3.13;;;7.70;99.90;;;;;;5024347;28;20240;-73
2022/11/13 05:19:36;;;;;;;3.42;3.22;;;7.70;99.90;;;;;;5023811;28;20192;-73
2022/11/13 05:22:03;;;;;;;3.40;3.15;;;7.70;99.90;;;;;;5026990;28;20216;-73
2022/11/13 05:24:30;;;;;;;3.47;3.17;;;7.70;99.90;;;;;;5028727;28;20212;-73
2022/11/13 05:26:58;;;;;;;3.30;3.10;;;7.70;99.90;;;;;;5025799;28;20269;-75
2022/11/13 05:29:25;;;;;;;3.17;2.97;;;7.60;99.90;;;;;;5031226;28;20196;-74
2022/11/13 05:31:54;;;;;;;2.35;2.20;;;7.60;99.90;;;;;;5028486;28;20234;-74
2022/11/13 05:34:21;;;;;;;3.15;2.95;;;7.70;99.90;;;;;;5028145;28;20200;-74
2022/11/13 05:36:48;;;;;;;3.13;2.42;;;7.60;99.90;;;;;;5026783;28;20204;-74
2022/11/13 05:39:15;;;;;;;3.10;2.90;;;7.70;99.90;;;;;;5030749;28;20619;-72
2022/11/13 05:41:43;;;;;;;2.92;2.70;;;7.60;99.90;;;;;;5028127;28;20283;-71
2022/11/13 05:44:10;;;;;;;3.30;3.10;;;7.50;99.90;;;;;;5028889;28;20218;-74
2022/11/13 05:46:37;;;;;;;3.13;2.92;;;7.50;99.90;;;;;;5028660;28;20195;-72
2022/11/13 05:49:05;;;;;;;3.10;2.90;;;7.50;99.90;;;;;;5030167;28;20221;-74
2022/11/13 05:51:34;;;;;;;3.05;2.85;;;7.50;99.90;;;;;;5028564;28;20195;-73
2022/11/13 05:54:01;;;;;;;2.95;2.75;;;7.50;99.90;;;;;;5030027;28;20549;-72
2022/11/13 05:56:31;;;;;;;2.83;2.63;;;7.50;99.90;;;;;;5027462;28;20226;-72
2022/11/13 05:59:00;;;;;;;2.90;2.70;;;7.50;99.90;;;;;;5025418;28;20223;-72
2022/11/13 06:01:29;;;;;;;3.17;2.97;;;7.50;99.90;;;;;;5025864;28;20203;-74
2022/11/13 06:03:57;;;;;;;2.70;2.50;;;7.50;99.90;;;;;;5024596;28;20773;-72
2022/11/13 06:06:27;;;;;;;3.35;3.15;;;7.50;99.90;;;;;;5027514;28;20655;-71
2022/11/13 06:08:56;;;;;;;3.10;2.90;;;7.50;99.90;;;;;;5025070;28;20234;-70
2022/11/13 06:11:26;;;;;;;2.72;2.53;;;7.50;99.90;;;;;;5024159;28;20206;-72
2022/11/13 06:13:54;;;;;;;2.90;2.70;;;7.50;99.90;;;;;;5023753;28;20273;-72
2022/11/13 06:16:24;;;;;;;2.88;2.67;;;7.50;99.90;;;;;;5027468;28;20195;-71
2022/11/13 06:18:55;;;;;;;2.90;2.70;;;7.50;99.90;;;;;;5024432;28;20238;-74
2022/11/13 06:21:25;;;;;;;3.10;2.90;;;7.50;99.90;;;;;;5026262;28;20199;-72
2022/11/13 06:23:53;;;;;;;2.97;2.78;;;7.50;99.90;;;;;;5025266;28;20232;-72
2022/11/13 06:26:21;;;;;;;3.15;2.95;;;7.50;99.90;;;;;;5025553;28;20207;-75
2022/11/13 06:28:49;;;;;;;4.35;2.83;;;7.50;99.90;;;;;;5026090;28;20222;-72
2022/11/13 06:31:19;;;;;;;3.00;2.80;;;7.50;99.90;;;;;;5026481;28;20199;-72
2022/11/13 06:33:46;;;;;;;2.80;2.60;;;7.50;99.90;;;;;;5022384;28;20223;-72
2022/11/13 06:36:15;;;;;;;3.05;2.85;;;7.50;99.90;;;;;;5026082;28;20199;-73
2022/11/13 06:38:44;;;;;;;2.90;2.70;;;7.50;99.90;;;;;;5027252;28;20222;-73
2022/11/13 06:41:13;;;;;;;3.30;3.10;;;7.60;99.90;;;;;;5027764;28;20214;-73
2022/11/13 06:43:41;;;;;;;4.32;4.03;;;7.60;99.90;;;;;;5027422;28;20690;-75
2022/11/13 06:46:11;;;;;;;4.10;3.80;;;7.50;99.90;;;;;;5027426;28;20277;-72
2022/11/13 06:48:39;;;;;;;4.65;4.25;;;7.40;99.90;;;;;;5025622;28;20219;-71
2022/11/13 06:51:07;;;;;;;3.95;3.65;;;7.30;99.90;;;;;;5027319;28;20203;-71
2022/11/13 06:53:35;;;;;;;3.65;3.45;;;7.20;99.90;;;;;;5023573;28;20300;-72
2022/11/13 06:56:06;;;;;;;4.10;3.80;;;7.10;99.90;;;;;;5026833;28;20542;-71
2022/11/13 06:58:33;;;;;;;3.95;3.65;;;7.20;99.90;;;;;;5026206;28;20219;-70
2022/11/13 07:01:06;;;;;;;4.60;4.25;;;7.20;99.90;;;;;;5025533;28;20210;-71
2022/11/13 07:03:33;;;;;;;3.85;3.58;;;7.30;99.90;;;;;;5026247;28;20489;-72
2022/11/13 07:06:02;;;;;;;3.83;3.53;;;7.30;99.90;;;;;;5028125;28;20203;-71
2022/11/13 07:08:29;;;;;;;3.95;3.65;;;7.30;99.90;;;;;;5023866;28;20631;-76
2022/11/13 07:10:58;;;;;;;4.55;4.18;;;7.40;99.90;;;;;;5023455;28;20207;-72
2022/11/13 07:13:28;;;;;;;3.80;3.50;;;7.30;99.90;;;;;;5022166;28;20243;-72
2022/11/13 07:15:55;;;;;;;3.95;3.65;;;7.30;99.90;;;;;;5027235;28;20195;-72
2022/11/13 07:18:22;;;;;;;3.65;3.35;;;7.30;99.90;;;;;;5024503;28;20277;-71
2022/11/13 07:20:49;;;;;;;3.30;3.10;;;7.40;99.90;;;;;;5024475;28;20200;-72
2022/11/13 07:23:17;;;;;;;3.58;3.38;;;7.40;99.90;;;;;;5024026;28;20230;-73
2022/11/13 07:25:44;;;;;;;3.38;3.08;;;7.50;99.90;;;;;;5023535;28;20192;-72
2022/11/13 07:28:11;;;;;;;4.10;3.70;;;7.60;99.90;;;;;;5025731;28;20219;-72
2022/11/13 07:30:39;;;;;;;4.28;3.80;;;7.70;99.90;;;;;;5035235;28;20203;-74
2022/11/13 07:33:07;;;;;;;4.63;4.32;;;7.70;99.90;;;;;;5033836;28;20228;-73
2022/11/13 07:35:34;;;;;;;4.20;3.90;;;8.20;99.90;;;;;;5029055;28;20207;-72
2022/11/13 07:38:01;;;;;;;4.15;3.40;;;9.00;99.90;;;;;;5029739;28;20231;-74
2022/11/13 07:40:28;;;;;;;4.75;4.32;;;9.90;99.90;;;;;;5027656;28;20294;-74
2022/11/13 07:42:59;;;;;;;7.13;6.43;;;10.80;99.90;;;;;;5028538;28;20581;-74
2022/11/13 07:45:27;;;;;;;9.50;8.18;;;11.50;99.90;;;;;;5029834;28;20199;-73
2022/11/13 07:47:59;;;;;;;7.95;7.10;;;12.30;99.90;;;;;;5031222;28;20211;-76
2022/11/13 07:50:27;;;;;;;6.63;6.00;;;12.90;99.90;;;;;;5028856;28;20618;-72
2022/11/13 07:52:58;;;;;;;5.22;4.72;;;13.50;99.90;;;;;;5029054;28;20219;-75
2022/11/13 07:55:26;;;;;;;4.47;4.07;;;14.10;99.90;;;;;;5028826;28;20203;-76
2022/11/13 07:57:56;;;;;;;4.38;3.70;;;14.60;99.90;;;;;;5027127;28;20231;-74
2022/11/13 08:00:23;;;;;;;3.53;3.28;;;15.00;99.90;;;;;;5030224;28;20208;-72
2022/11/13 08:02:51;;;;;;;3.97;3.67;;;15.30;99.90;;;;;;5030223;28;20227;-73
2022/11/13 08:05:20;;;;;;;2.95;2.75;;;15.60;99.90;;;;;;5014020;28;20218;-72
2022/11/13 08:07:48;;;;;;;3.60;3.30;;;15.80;99.90;;;;;;5027319;28;20226;-73
2022/11/13 08:10:16;;;;;;;3.60;3.30;;;16.00;99.90;;;;;;5028795;28;20697;-72
2022/11/13 08:12:44;;;;;;;3.65;3.35;;;16.20;99.90;;;;;;5029151;28;20232;-72
2022/11/13 08:15:11;;;;;;;3.63;3.33;;;16.50;99.90;;;;;;5027852;28;20279;-72
2022/11/13 08:17:39;;;;;;;3.50;3.20;;;16.80;99.90;;;;;;5026919;28;20224;-72
2022/11/13 08:20:07;;;;;;;3.80;3.50;;;17.00;99.90;;;;;;5031885;28;20199;-72
2022/11/13 08:22:36;;;;;;;4.40;3.67;;;17.10;99.90;;;;;;5027994;28;20223;-72
2022/11/13 08:25:04;;;;;;;4.45;3.63;;;17.20;99.90;;;;;;5026210;28;20662;-72
2022/11/13 08:27:31;;;;;;;4.75;4.35;;;17.20;99.90;;;;;;5028802;28;20570;-72
2022/11/13 08:29:58;;;;;;;4.00;3.70;;;17.40;99.90;;;;;;5025748;28;20231;-72
2022/11/13 08:32:25;;;;;;;3.65;3.35;;;17.60;99.90;;;;;;5030735;28;20265;-72
2022/11/13 08:34:52;;;;;;;3.35;3.15;;;17.80;99.90;;;;;;5028112;28;20208;-72
2022/11/13 08:37:19;;;;;;;4.15;3.75;;;18.00;99.90;;;;;;5027217;28;20586;-73
2022/11/13 08:39:48;;;;;;;4.57;4.18;;;18.10;99.90;;;;;;5027036;28;20208;-73
2022/11/13 08:42:15;;;;;;;4.32;3.65;;;18.20;99.90;;;;;;5028969;28;20298;-73
2022/11/13 08:44:42;;;;;;;4.00;3.60;;;18.10;99.90;;;;;;5033240;28;20203;-72
2022/11/13 08:47:10;;;;;;;3.90;3.60;;;18.30;99.90;;;;;;5024664;28;20662;-72
2022/11/13 08:49:37;;;;;;;3.58;3.28;;;18.60;99.90;;;;;;5028232;28;20212;-73
2022/11/13 08:52:04;;;;;;;4.55;3.83;;;18.60;99.90;;;;;;5028664;28;20228;-74
2022/11/13 08:54:31;;;;;;;5.43;3.30;;;18.60;99.90;;;;;;5027065;28;20195;-73
2022/11/13 08:57:00;;;;;;;3.70;3.40;;;18.70;99.90;;;;;;5026224;28;20598;-73
2022/11/13 08:59:27;;;;;;;4.05;3.58;;;18.50;99.90;;;;;;5026903;28;20279;-72
2022/11/13 09:01:58;;;;;;;4.03;3.63;;;18.50;99.90;;;;;;5027489;28;20297;-73
2022/11/13 09:04:25;;;;;;;3.83;3.53;;;18.90;99.90;;;;;;5028196;28;20195;-72
2022/11/13 09:06:52;;;;;;;4.25;3.80;;;19.60;99.90;;;;;;5023765;28;20600;-72
2022/11/13 09:09:20;;;;;;;4.85;4.35;;;20.80;99.90;;;;;;5021106;28;20571;-72
2022/11/13 09:11:48;;;;;;;3.78;3.45;;;22.30;99.90;;;;;;5022276;28;20192;-73
2022/11/13 09:14:16;;;;;;;4.93;3.85;;;23.50;99.90;;;;;;5022126;28;20207;-73
2022/11/13 09:16:43;;;;;;;4.00;3.63;;;24.80;99.90;;;;;;5025740;28;20372;-73
2022/11/13 09:19:10;;;;;;;3.70;3.40;;;25.80;99.90;;;;;;5024106;28;20270;-73
2022/11/13 09:21:38;;;;;;;4.32;3.92;;;25.60;99.90;;;;;;5027496;28;20218;-73
2022/11/13 09:24:06;;;;;;;4.47;4.07;;;24.40;99.90;;;;;;5029338;28;20212;-72
2022/11/13 09:26:34;;;;;;;3.75;3.45;;;23.00;99.90;;;;;;5024239;28;20196;-73
2022/11/13 09:29:02;;;;;;;3.40;3.10;;;21.90;99.90;;;;;;5032298;28;20204;-76
2022/11/13 09:31:31;;;;;;;3.60;3.10;;;21.10;99.90;;;;;;5033528;28;20219;-76
2022/11/13 09:33:58;;;;;;;3.47;3.00;;;20.60;99.90;;;;;;5029319;28;20314;-74
2022/11/13 09:36:25;;;;;;;3.60;3.25;;;20.00;99.90;;;;;;5028337;28;20613;-75
2022/11/13 09:38:53;;;;;;;2.92;2.63;;;19.40;99.90;;;;;;5027445;28;20310;-75
2022/11/13 09:41:25;;;;;;;3.90;3.35;;;19.00;99.90;;;;;;5029273;28;20339;-76
2022/11/13 09:43:54;;;;;;;3.80;3.40;;;18.90;99.90;;;;;;5032424;28;20223;-75
2022/11/13 09:46:34;;;;;;;3.45;2.70;;;18.90;99.90;;;;;;5026922;28;20212;-75
2022/11/13 09:49:13;;;;;;;3.28;2.97;;;18.70;99.90;;;;;;5029740;28;20327;-75
2022/11/13 09:51:41;;;;;;;4.28;3.53;;;19.00;99.90;;;;;;5031160;28;20207;-75
2022/11/13 09:54:14;;;;;;;3.70;3.35;;;19.00;99.90;;;;;;5030577;28;20195;-75
2022/11/13 09:56:46;;;;;;;4.53;3.40;;;18.90;99.90;;;;;;5025447;28;20286;-75
2022/11/13 09:59:22;;;;;;;3.33;3.03;;;18.70;99.90;;;;;;5029883;28;20297;-75
2022/11/13 10:01:58;;;;;;;2.97;2.70;;;18.80;99.90;;;;;;5028086;28;20238;-77
2022/11/13 10:04:37;;;;;;;3.55;3.25;;;19.00;99.90;;;;;;5035837;28;20597;-75
2022/11/13 10:07:24;;;;;;;3.95;3.63;;;19.50;99.90;;;;;;5032625;28;20223;-75
2022/11/13 10:10:05;;;;;;;3.83;3.45;;;19.50;99.90;;;;;;5028778;28;20207;-75
2022/11/13 10:12:33;;;;;;;3.70;3.40;;;19.40;99.90;;;;;;5027887;28;20238;-76
2022/11/13 10:15:03;;;;;;;3.58;3.22;;;19.20;99.90;;;;;;5035786;28;20270;-77
2022/11/13 10:17:37;;;;;;;4.47;2.97;;;19.10;99.90;;;;;;5035214;28;20218;-76
2022/11/13 10:20:12;;;;;;;2.80;2.60;;;19.20;99.90;;;;;;5030641;28;21203;-76
2022/11/13 10:22:43;;;;;;;3.70;2.60;;;19.10;99.90;;;;;;5031409;28;20223;-76
2022/11/13 10:25:15;;;;;;;3.72;2.67;;;19.30;99.90;;;;;;5035038;28;20204;-77
2022/11/13 10:27:43;;;;;;;3.60;2.92;;;19.60;99.90;;;;;;5030893;28;20241;-72
2022/11/13 10:30:16;;;;;;;3.35;2.60;;;19.90;99.90;;;;;;5027593;28;20187;-73
2022/11/13 10:32:44;;;;;;;2.78;2.40;;;20.00;99.90;;;;;;5024259;28;20239;-74
2022/11/13 10:35:31;;;;;;;3.55;2.72;;;19.90;99.90;;;;;;5029713;28;20199;-75
2022/11/13 10:38:03;;;;;;;3.00;2.80;;;19.60;99.90;;;;;;5022826;28;21392;-74
2022/11/13 10:40:32;;;;;;;3.15;2.85;;;19.30;99.90;;;;;;5031467;28;20204;-73
2022/11/13 10:43:07;;;;;;;3.88;2.58;;;19.00;99.90;;;;;;5030533;28;20223;-74
2022/11/13 10:45:35;;;;;;;3.17;2.88;;;18.80;99.90;;;;;;5033578;28;20202;-73
2022/11/13 10:48:02;;;;;;;3.00;2.72;;;18.60;99.90;;;;;;5032890;28;20223;-73
2022/11/13 10:50:33;;;;;;;2.88;2.67;;;18.60;99.90;;;;;;5032698;28;20282;-74
2022/11/13 10:53:00;;;;;;;3.40;2.53;;;18.50;99.90;;;;;;5024154;28;20224;-74
2022/11/13 10:55:39;;;;;;;2.80;2.60;;;18.50;99.90;;;;;;5025031;28;20570;-75
2022/11/13 10:58:15;;;;;;;2.75;2.55;;;18.60;99.90;;;;;;5023529;28;20675;-74
2022/11/13 11:00:43;;;;;;;2.50;2.30;;;18.80;99.90;;;;;;5025866;28;20299;-74
2022/11/13 11:03:16;;;;;;;3.05;2.78;;;18.90;99.90;;;;;;5028283;28;20296;-74
2022/11/13 11:05:55;;;;;;;2.80;2.60;;;19.00;99.90;;;;;;5032020;28;20203;-73
2022/11/13 11:08:28;;;;;;;2.80;2.60;;;18.90;99.90;;;;;;5031547;28;20215;-73
2022/11/13 11:13:44;;;;;;;2.75;2.55;;;18.90;99.90;;;;;;5032703;22;20227;-73
2022/11/13 11:16:16;;;;;;;2.63;2.42;;;19.00;99.90;;;;;;4994536;28;20228;-74
2022/11/13 11:18:49;;;;;;;2.80;2.60;;;19.00;99.90;;;;;;4995739;28;20219;-74
2022/11/13 11:21:21;;;;;;;2.78;2.58;;;18.90;99.90;;;;;;4992844;28;20542;-74
2022/11/13 11:23:54;;;;;;;3.90;2.50;;;18.80;99.90;;;;;;5004728;28;20227;-74
2022/11/13 11:26:25;;;;;;;3.17;2.80;;;18.40;99.90;;;;;;4998399;28;20204;-74
2022/11/13 11:29:02;;;;;;;2.80;2.60;;;17.90;99.90;;;;;;5005580;28;20208;-74
2022/11/13 11:31:35;;;;;;;2.97;2.78;;;17.30;99.90;;;;;;4995972;28;20287;-74
2022/11/13 11:34:11;;;;;;;2.88;2.65;;;17.10;99.90;;;;;;4996052;28;20263;-74
2022/11/13 11:36:46;;;;;;;3.95;3.10;;;16.90;99.90;;;;;;5003335;28;21050;-74
2022/11/13 11:39:28;;;;;;;2.78;2.53;;;16.80;99.90;;;;;;4994746;28;20258;-74
2022/11/13 11:42:04;;;;;;;2.95;2.65;;;16.90;99.90;;;;;;5000205;28;20219;-74
2022/11/13 11:44:37;;;;;;;2.88;2.55;;;16.80;99.90;;;;;;5000769;28;20274;-74
2022/11/13 11:47:11;;;;;;;2.90;2.70;;;16.80;99.90;;;;;;4997735;28;20236;-74
2022/11/13 11:49:38;;;;;;;2.85;2.45;;;16.70;99.90;;;;;;5002346;28;20714;-74
2022/11/13 11:52:17;;;;;;;2.70;2.50;;;16.70;99.90;;;;;;5000317;28;20220;-74
2022/11/13 11:54:52;;;;;;;4.68;2.50;;;16.60;99.90;;;;;;4996552;28;20223;-74
2022/11/13 11:57:32;;;;;;;2.80;2.60;;;16.40;99.90;;;;;;4999771;28;20216;-74
2022/11/13 12:00:05;;;;;;;2.80;2.60;;;16.20;99.90;;;;;;4995997;28;20212;-73
2022/11/13 12:03:04;;;;;;;3.40;2.60;;;16.00;99.90;;;;;;5008111;28;20249;-73
2022/11/13 12:05:43;;;;;;;2.80;2.60;;;15.80;99.90;;;;;;4997801;28;20201;-74
2022/11/13 12:08:22;;;;;;;2.65;2.45;;;15.70;99.90;;;;;;4998532;28;20676;-74
2022/11/13 12:10:58;;;;;;;2.83;2.63;;;16.10;99.90;;;;;;4996436;28;20733;-74
2022/11/13 12:13:31;;;;;;;2.92;2.72;;;16.40;99.90;;;;;;4998743;28;20228;-74
2022/11/13 12:16:05;;;;;;;3.88;2.60;;;16.70;99.90;;;;;;5000208;28;20220;-74
2022/11/13 12:18:45;;;;;;;2.70;2.50;;;17.00;99.90;;;;;;4994110;28;20224;-74
2022/11/13 12:21:23;;;;;;;2.65;2.45;;;17.10;99.90;;;;;;4999756;28;20215;-74
2022/11/13 12:24:20;;;;;;;3.38;2.65;;;17.00;99.90;;;;;;4995603;28;20225;-74
2022/11/13 12:26:52;;;;;;;3.17;2.83;;;16.60;99.90;;;;;;4996201;28;20201;-74
2022/11/13 12:29:39;;;;;;;3.22;2.78;;;16.50;99.90;;;;;;5004689;28;20193;-74
2022/11/13 12:32:17;;;;;;;2.95;2.70;;;16.60;99.90;;;;;;4998357;28;20240;-74
2022/11/13 12:34:49;;;;;;;3.28;2.97;;;16.70;99.90;;;;;;4996942;28;20225;-74
2022/11/13 12:37:22;;;;;;;3.05;2.85;;;16.70;99.90;;;;;;4995678;28;20224;-74
2022/11/13 12:39:56;;;;;;;3.17;2.97;;;16.70;99.90;;;;;;4995647;28;20212;-74
2022/11/13 12:42:33;;;;;;;3.60;3.30;;;16.80;99.90;;;;;;5001008;28;20228;-74
2022/11/13 12:45:09;;;;;;;3.92;3.40;;;16.80;99.90;;;;;;4997009;28;20220;-74
2022/11/13 12:47:36;;;;;;;2.90;2.70;;;16.60;99.90;;;;;;5001130;28;20216;-74
2022/11/13 12:50:24;;;;;;;2.90;2.70;;;16.50;99.90;;;;;;4994652;28;20201;-74
2022/11/13 12:53:02;;;;;;;2.35;2.15;;;16.50;99.90;;;;;;4993439;28;20236;-74
2022/11/13 12:55:34;;;;;;;2.95;2.75;;;16.40;99.90;;;;;;5003066;28;20200;-74
2022/11/13 12:58:09;;;;;;;2.83;2.63;;;16.60;99.90;;;;;;5003992;28;20233;-73
2022/11/13 13:00:40;;;;;;;3.10;2.80;;;16.80;99.90;;;;;;5000464;28;20196;-74
2022/11/13 13:03:23;;;;;;;2.80;2.60;;;17.00;99.90;;;;;;5002476;28;20224;-74
2022/11/13 13:06:24;;;;;;;2.88;2.38;;;17.30;99.90;;;;;;4995368;28;20200;-74
2022/11/13 13:09:05;;;;;;;5.72;2.53;;;17.50;99.90;;;;;;4994020;28;20273;-74
2022/11/13 13:11:43;;;;;;;3.15;2.95;;;17.50;99.90;;;;;;5002069;28;20197;-74